sensor_id;sensor_type;location;lat;lon;timestamp;temperature;humidity
46652;DHT22;32377;52.182;5.398;2023-04-24T00:00:05;9.80;99.90
46652;DHT22;32377;52.182;5.398;2023-04-24T00:02:31;9.80;99.90
46652;DHT22;32377;52.182;5.398;2023-04-24T00:04:58;9.80;99.90
46652;DHT22;32377;52.182;5.398;2023-04-24T00:07:28;9.80;99.90
46652;DHT22;32377;52.182;5.398;2023-04-24T00:09:54;9.80;99.90
46652;DHT22;32377;52.182;5.398;2023-04-24T00:12:20;9.80;99.90
46652;DHT22;32377;52.182;5.398;2023-04-24T00:14:45;9.80;99.90
46652;DHT22;32377;52.182;5.398;2023-04-24T00:17:11;9.80;99.90
46652;DHT22;32377;52.182;5.398;2023-04-24T00:19:36;9.80;99.90
46652;DHT22;32377;52.182;5.398;2023-04-24T00:22:02;9.70;99.90
46652;DHT22;32377;52.182;5.398;2023-04-24T00:24:29;9.70;99.90
46652;DHT22;32377;52.182;5.398;2023-04-24T00:26:54;9.80;99.90
46652;DHT22;32377;52.182;5.398;2023-04-24T00:29:20;9.80;99.90
46652;DHT22;32377;52.182;5.398;2023-04-24T00:31:45;9.70;99.90
46652;DHT22;32377;52.182;5.398;2023-04-24T00:34:11;9.70;99.90
46652;DHT22;32377;52.182;5.398;2023-04-24T00:36:37;9.60;99.90
46652;DHT22;32377;52.182;5.398;2023-04-24T00:39:03;9.60;99.90
46652;DHT22;32377;52.182;5.398;2023-04-24T00:41:29;9.60;99.90
46652;DHT22;32377;52.182;5.398;2023-04-24T00:43:55;9.60;99.90
46652;DHT22;32377;52.182;5.398;2023-04-24T00:46:21;9.60;99.90
46652;DHT22;32377;52.182;5.398;2023-04-24T00:48:47;9.50;99.90
46652;DHT22;32377;52.182;5.398;2023-04-24T00:51:13;9.50;99.90
46652;DHT22;32377;52.182;5.398;2023-04-24T00:53:38;9.50;99.90
46652;DHT22;32377;52.182;5.398;2023-04-24T00:56:05;9.50;99.90
46652;DHT22;32377;52.182;5.398;2023-04-24T00:58:31;9.50;99.90
46652;DHT22;32377;52.182;5.398;2023-04-24T01:00:57;9.50;99.90
46652;DHT22;32377;52.182;5.398;2023-04-24T01:03:29;9.50;99.90
46652;DHT22;32377;52.182;5.398;2023-04-24T01:05:55;9.50;99.90
46652;DHT22;32377;52.182;5.398;2023-04-24T01:08:24;9.40;99.90
46652;DHT22;32377;52.182;5.398;2023-04-24T01:10:52;9.50;99.90
46652;DHT22;32377;52.182;5.398;2023-04-24T01:13:21;9.50;99.90
46652;DHT22;32377;52.182;5.398;2023-04-24T01:15:47;9.50;99.90
46652;DHT22;32377;52.182;5.398;2023-04-24T01:18:13;9.50;99.90
46652;DHT22;32377;52.182;5.398;2023-04-24T01:20:40;9.50;99.90
46652;DHT22;32377;52.182;5.398;2023-04-24T01:23:07;9.60;99.90
46652;DHT22;32377;52.182;5.398;2023-04-24T01:25:33;9.60;99.90
46652;DHT22;32377;52.182;5.398;2023-04-24T01:27:59;9.60;99.90
46652;DHT22;32377;52.182;5.398;2023-04-24T01:30:26;9.70;99.90
46652;DHT22;32377;52.182;5.398;2023-04-24T01:32:52;9.70;99.90
46652;DHT22;32377;52.182;5.398;2023-04-24T01:35:18;9.70;99.90
46652;DHT22;32377;52.182;5.398;2023-04-24T01:37:44;9.70;99.90
46652;DHT22;32377;52.182;5.398;2023-04-24T01:40:10;9.70;99.90
46652;DHT22;32377;52.182;5.398;2023-04-24T01:42:36;9.70;99.90
46652;DHT22;32377;52.182;5.398;2023-04-24T01:45:03;9.70;99.90
46652;DHT22;32377;52.182;5.398;2023-04-24T01:47:30;9.60;99.90
46652;DHT22;32377;52.182;5.398;2023-04-24T01:49:56;9.60;99.90
46652;DHT22;32377;52.182;5.398;2023-04-24T01:52:21;9.70;99.90
46652;DHT22;32377;52.182;5.398;2023-04-24T01:54:47;9.60;99.90
46652;DHT22;32377;52.182;5.398;2023-04-24T01:57:14;9.60;99.90
46652;DHT22;32377;52.182;5.398;2023-04-24T01:59:40;9.60;99.90
46652;DHT22;32377;52.182;5.398;2023-04-24T02:02:05;9.60;99.90
46652;DHT22;32377;52.182;5.398;2023-04-24T02:04:31;9.60;99.90
46652;DHT22;32377;52.182;5.398;2023-04-24T02:06:57;9.60;99.90
46652;DHT22;32377;52.182;5.398;2023-04-24T02:09:22;9.60;99.90
46652;DHT22;32377;52.182;5.398;2023-04-24T02:11:48;9.60;99.90
46652;DHT22;32377;52.182;5.398;2023-04-24T02:14:14;9.60;99.90
46652;DHT22;32377;52.182;5.398;2023-04-24T02:16:39;9.60;99.90
46652;DHT22;32377;52.182;5.398;2023-04-24T02:19:05;9.60;99.90
46652;DHT22;32377;52.182;5.398;2023-04-24T02:21:31;9.60;99.90
46652;DHT22;32377;52.182;5.398;2023-04-24T02:23:57;9.60;99.90
46652;DHT22;32377;52.182;5.398;2023-04-24T02:26:22;9.70;99.90
46652;DHT22;32377;52.182;5.398;2023-04-24T02:28:48;9.70;99.90
46652;DHT22;32377;52.182;5.398;2023-04-24T02:31:14;9.70;99.90
46652;DHT22;32377;52.182;5.398;2023-04-24T02:33:40;9.60;99.90
46652;DHT22;32377;52.182;5.398;2023-04-24T02:36:05;9.70;99.90
46652;DHT22;32377;52.182;5.398;2023-04-24T02:38:31;9.70;99.90
46652;DHT22;32377;52.182;5.398;2023-04-24T02:40:57;9.70;99.90
46652;DHT22;32377;52.182;5.398;2023-04-24T02:43:22;9.70;99.90
46652;DHT22;32377;52.182;5.398;2023-04-24T02:45:48;9.70;99.90
46652;DHT22;32377;52.182;5.398;2023-04-24T02:48:14;9.70;99.90
46652;DHT22;32377;52.182;5.398;2023-04-24T02:50:40;9.60;99.90
46652;DHT22;32377;52.182;5.398;2023-04-24T02:53:06;9.60;99.90
46652;DHT22;32377;52.182;5.398;2023-04-24T02:55:31;9.60;99.90
46652;DHT22;32377;52.182;5.398;2023-04-24T02:57:57;9.60;99.90
46652;DHT22;32377;52.182;5.398;2023-04-24T03:00:22;9.60;99.90
46652;DHT22;32377;52.182;5.398;2023-04-24T03:02:48;9.60;99.90
46652;DHT22;32377;52.182;5.398;2023-04-24T03:05:15;9.60;99.90
46652;DHT22;32377;52.182;5.398;2023-04-24T03:07:40;9.60;99.90
46652;DHT22;32377;52.182;5.398;2023-04-24T03:10:07;9.60;99.90
46652;DHT22;32377;52.182;5.398;2023-04-24T03:12:32;9.50;99.90
46652;DHT22;32377;52.182;5.398;2023-04-24T03:14:58;9.40;99.90
46652;DHT22;32377;52.182;5.398;2023-04-24T03:17:23;9.40;99.90
46652;DHT22;32377;52.182;5.398;2023-04-24T03:19:49;9.40;99.90
46652;DHT22;32377;52.182;5.398;2023-04-24T03:22:15;9.50;99.90
46652;DHT22;32377;52.182;5.398;2023-04-24T03:24:41;9.40;99.90
46652;DHT22;32377;52.182;5.398;2023-04-24T03:27:06;9.40;99.90
46652;DHT22;32377;52.182;5.398;2023-04-24T03:29:32;9.40;99.90
46652;DHT22;32377;52.182;5.398;2023-04-24T03:31:57;9.40;99.90
46652;DHT22;32377;52.182;5.398;2023-04-24T03:34:23;9.40;99.90
46652;DHT22;32377;52.182;5.398;2023-04-24T03:36:48;9.40;99.90
46652;DHT22;32377;52.182;5.398;2023-04-24T03:39:14;9.40;99.90
46652;DHT22;32377;52.182;5.398;2023-04-24T03:41:40;9.50;99.90
46652;DHT22;32377;52.182;5.398;2023-04-24T03:44:05;9.40;99.90
46652;DHT22;32377;52.182;5.398;2023-04-24T03:46:31;9.40;99.90
46652;DHT22;32377;52.182;5.398;2023-04-24T03:48:57;9.50;99.90
46652;DHT22;32377;52.182;5.398;2023-04-24T03:51:22;9.50;99.90
46652;DHT22;32377;52.182;5.398;2023-04-24T03:53:48;9.50;99.90
46652;DHT22;32377;52.182;5.398;2023-04-24T03:59:21;9.40;99.90
46652;DHT22;32377;52.182;5.398;2023-04-24T04:01:47;9.50;99.90
46652;DHT22;32377;52.182;5.398;2023-04-24T04:04:15;9.40;99.90
46652;DHT22;32377;52.182;5.398;2023-04-24T04:06:41;9.50;99.90
46652;DHT22;32377;52.182;5.398;2023-04-24T04:09:07;9.40;99.90
46652;DHT22;32377;52.182;5.398;2023-04-24T04:11:33;9.40;99.90
46652;DHT22;32377;52.182;5.398;2023-04-24T04:14:01;9.40;99.90
46652;DHT22;32377;52.182;5.398;2023-04-24T04:16:26;9.40;99.90
46652;DHT22;32377;52.182;5.398;2023-04-24T04:18:52;9.30;99.90
46652;DHT22;32377;52.182;5.398;2023-04-24T04:21:17;9.30;99.90
46652;DHT22;32377;52.182;5.398;2023-04-24T04:23:43;9.30;99.90
46652;DHT22;32377;52.182;5.398;2023-04-24T04:26:09;9.30;99.90
46652;DHT22;32377;52.182;5.398;2023-04-24T04:28:34;9.30;99.90
46652;DHT22;32377;52.182;5.398;2023-04-24T04:31:00;9.30;99.90
46652;DHT22;32377;52.182;5.398;2023-04-24T04:33:26;9.30;99.90
46652;DHT22;32377;52.182;5.398;2023-04-24T04:35:52;9.30;99.90
46652;DHT22;32377;52.182;5.398;2023-04-24T04:38:18;9.30;99.90
46652;DHT22;32377;52.182;5.398;2023-04-24T04:40:45;9.30;99.90
46652;DHT22;32377;52.182;5.398;2023-04-24T04:43:11;9.30;99.90
46652;DHT22;32377;52.182;5.398;2023-04-24T04:45:38;9.30;99.90
46652;DHT22;32377;52.182;5.398;2023-04-24T04:48:05;9.30;99.90
46652;DHT22;32377;52.182;5.398;2023-04-24T04:50:33;9.30;99.90
46652;DHT22;32377;52.182;5.398;2023-04-24T04:52:58;9.30;99.90
46652;DHT22;32377;52.182;5.398;2023-04-24T04:55:24;9.30;99.90
46652;DHT22;32377;52.182;5.398;2023-04-24T04:57:50;9.40;99.90
46652;DHT22;32377;52.182;5.398;2023-04-24T05:00:16;9.40;99.90
46652;DHT22;32377;52.182;5.398;2023-04-24T05:02:41;9.40;99.90
46652;DHT22;32377;52.182;5.398;2023-04-24T05:05:07;9.40;99.90
46652;DHT22;32377;52.182;5.398;2023-04-24T05:07:34;9.40;99.90
46652;DHT22;32377;52.182;5.398;2023-04-24T05:09:59;9.40;99.90
46652;DHT22;32377;52.182;5.398;2023-04-24T05:12:25;9.50;99.90
46652;DHT22;32377;52.182;5.398;2023-04-24T05:14:51;9.50;99.90
46652;DHT22;32377;52.182;5.398;2023-04-24T05:17:16;9.50;99.90
46652;DHT22;32377;52.182;5.398;2023-04-24T05:19:42;9.50;99.90
46652;DHT22;32377;52.182;5.398;2023-04-24T05:22:08;9.50;99.90
46652;DHT22;32377;52.182;5.398;2023-04-24T05:24:35;9.50;99.90
46652;DHT22;32377;52.182;5.398;2023-04-24T05:27:01;9.50;99.90
46652;DHT22;32377;52.182;5.398;2023-04-24T05:29:28;9.50;99.90
46652;DHT22;32377;52.182;5.398;2023-04-24T05:31:56;9.60;99.90
46652;DHT22;32377;52.182;5.398;2023-04-24T05:34:21;9.50;99.90
46652;DHT22;32377;52.182;5.398;2023-04-24T05:36:47;9.50;99.90
46652;DHT22;32377;52.182;5.398;2023-04-24T05:39:13;9.50;99.90
46652;DHT22;32377;52.182;5.398;2023-04-24T05:41:39;9.50;99.90
46652;DHT22;32377;52.182;5.398;2023-04-24T05:44:04;9.50;99.90
46652;DHT22;32377;52.182;5.398;2023-04-24T05:46:30;9.50;99.90
46652;DHT22;32377;52.182;5.398;2023-04-24T05:48:56;9.50;99.90
46652;DHT22;32377;52.182;5.398;2023-04-24T05:51:21;9.40;99.90
46652;DHT22;32377;52.182;5.398;2023-04-24T05:53:47;9.40;99.90
46652;DHT22;32377;52.182;5.398;2023-04-24T05:56:13;9.40;99.90
46652;DHT22;32377;52.182;5.398;2023-04-24T05:58:38;9.40;99.90
46652;DHT22;32377;52.182;5.398;2023-04-24T06:01:05;9.40;99.90
46652;DHT22;32377;52.182;5.398;2023-04-24T06:03:31;9.30;99.90
46652;DHT22;32377;52.182;5.398;2023-04-24T06:05:56;9.30;99.90
46652;DHT22;32377;52.182;5.398;2023-04-24T06:08:22;9.30;99.90
46652;DHT22;32377;52.182;5.398;2023-04-24T06:10:48;9.30;99.90
46652;DHT22;32377;52.182;5.398;2023-04-24T06:13:13;9.20;99.90
46652;DHT22;32377;52.182;5.398;2023-04-24T06:15:39;9.30;99.90
46652;DHT22;32377;52.182;5.398;2023-04-24T06:18:04;9.20;99.90
46652;DHT22;32377;52.182;5.398;2023-04-24T06:20:30;9.10;99.90
46652;DHT22;32377;52.182;5.398;2023-04-24T06:22:56;9.10;99.90
46652;DHT22;32377;52.182;5.398;2023-04-24T06:25:21;9.00;99.90
46652;DHT22;32377;52.182;5.398;2023-04-24T06:27:47;9.00;99.90
46652;DHT22;32377;52.182;5.398;2023-04-24T06:30:13;8.90;99.90
46652;DHT22;32377;52.182;5.398;2023-04-24T06:32:39;8.90;99.90
46652;DHT22;32377;52.182;5.398;2023-04-24T06:35:06;8.90;99.90
46652;DHT22;32377;52.182;5.398;2023-04-24T06:37:33;8.90;99.90
46652;DHT22;32377;52.182;5.398;2023-04-24T06:39:59;8.90;99.90
46652;DHT22;32377;52.182;5.398;2023-04-24T06:42:24;8.90;99.90
46652;DHT22;32377;52.182;5.398;2023-04-24T06:44:50;8.90;99.90
46652;DHT22;32377;52.182;5.398;2023-04-24T06:47:16;8.90;99.90
46652;DHT22;32377;52.182;5.398;2023-04-24T06:49:42;8.90;99.90
46652;DHT22;32377;52.182;5.398;2023-04-24T06:52:08;9.00;99.90
46652;DHT22;32377;52.182;5.398;2023-04-24T06:54:33;8.90;99.90
46652;DHT22;32377;52.182;5.398;2023-04-24T06:56:59;8.90;99.90
46652;DHT22;32377;52.182;5.398;2023-04-24T06:59:28;8.90;99.90
46652;DHT22;32377;52.182;5.398;2023-04-24T07:01:55;8.90;99.90
46652;DHT22;32377;52.182;5.398;2023-04-24T07:04:20;8.90;99.90
46652;DHT22;32377;52.182;5.398;2023-04-24T07:06:47;8.90;99.90
46652;DHT22;32377;52.182;5.398;2023-04-24T07:09:14;8.80;99.90
46652;DHT22;32377;52.182;5.398;2023-04-24T07:11:41;8.80;99.90
46652;DHT22;32377;52.182;5.398;2023-04-24T07:14:07;8.80;99.90
46652;DHT22;32377;52.182;5.398;2023-04-24T07:16:33;8.70;99.90
46652;DHT22;32377;52.182;5.398;2023-04-24T07:18:58;8.60;99.90
46652;DHT22;32377;52.182;5.398;2023-04-24T07:21:24;8.60;99.90
46652;DHT22;32377;52.182;5.398;2023-04-24T07:23:52;8.50;99.90
46652;DHT22;32377;52.182;5.398;2023-04-24T07:26:17;8.50;99.90
46652;DHT22;32377;52.182;5.398;2023-04-24T07:28:43;8.50;99.90
46652;DHT22;32377;52.182;5.398;2023-04-24T07:31:08;8.60;99.90
46652;DHT22;32377;52.182;5.398;2023-04-24T07:33:34;8.60;99.90
46652;DHT22;32377;52.182;5.398;2023-04-24T07:36:01;8.60;99.90
46652;DHT22;32377;52.182;5.398;2023-04-24T07:38:29;8.60;99.90
46652;DHT22;32377;52.182;5.398;2023-04-24T07:40:55;8.60;99.90
46652;DHT22;32377;52.182;5.398;2023-04-24T07:43:21;8.50;99.90
46652;DHT22;32377;52.182;5.398;2023-04-24T07:45:47;8.60;99.90
46652;DHT22;32377;52.182;5.398;2023-04-24T07:48:12;8.60;99.90
46652;DHT22;32377;52.182;5.398;2023-04-24T07:50:42;8.60;99.90
46652;DHT22;32377;52.182;5.398;2023-04-24T07:53:07;8.60;99.90
46652;DHT22;32377;52.182;5.398;2023-04-24T07:55:33;8.60;99.90
46652;DHT22;32377;52.182;5.398;2023-04-24T07:57:59;8.60;99.90
46652;DHT22;32377;52.182;5.398;2023-04-24T08:00:24;8.60;99.90
46652;DHT22;32377;52.182;5.398;2023-04-24T08:02:50;8.60;99.90
46652;DHT22;32377;52.182;5.398;2023-04-24T08:05:16;8.70;99.90
46652;DHT22;32377;52.182;5.398;2023-04-24T08:07:41;8.70;99.90
46652;DHT22;32377;52.182;5.398;2023-04-24T08:10:11;8.60;99.90
46652;DHT22;32377;52.182;5.398;2023-04-24T08:12:37;8.60;99.90
46652;DHT22;32377;52.182;5.398;2023-04-24T08:15:04;8.50;99.90
46652;DHT22;32377;52.182;5.398;2023-04-24T08:17:30;8.40;99.90
46652;DHT22;32377;52.182;5.398;2023-04-24T08:19:56;8.40;99.90
46652;DHT22;32377;52.182;5.398;2023-04-24T08:22:27;8.40;99.90
46652;DHT22;32377;52.182;5.398;2023-04-24T08:24:53;8.40;99.90
46652;DHT22;32377;52.182;5.398;2023-04-24T08:27:18;8.50;99.90
46652;DHT22;32377;52.182;5.398;2023-04-24T08:29:44;8.40;99.90
46652;DHT22;32377;52.182;5.398;2023-04-24T08:32:10;8.40;99.90
46652;DHT22;32377;52.182;5.398;2023-04-24T08:34:35;8.40;99.90
46652;DHT22;32377;52.182;5.398;2023-04-24T08:37:01;8.30;99.90
46652;DHT22;32377;52.182;5.398;2023-04-24T08:39:27;8.30;99.90
46652;DHT22;32377;52.182;5.398;2023-04-24T08:41:53;8.40;99.90
46652;DHT22;32377;52.182;5.398;2023-04-24T08:44:19;8.40;99.90
46652;DHT22;32377;52.182;5.398;2023-04-24T08:46:47;8.50;99.90
46652;DHT22;32377;52.182;5.398;2023-04-24T08:49:14;8.40;99.90
46652;DHT22;32377;52.182;5.398;2023-04-24T08:51:44;8.30;99.90
46652;DHT22;32377;52.182;5.398;2023-04-24T08:54:11;8.40;99.90
46652;DHT22;32377;52.182;5.398;2023-04-24T08:56:37;8.40;99.90
46652;DHT22;32377;52.182;5.398;2023-04-24T08:59:06;8.40;99.90
46652;DHT22;32377;52.182;5.398;2023-04-24T09:01:32;8.50;99.90
46652;DHT22;32377;52.182;5.398;2023-04-24T09:04:03;8.50;99.90
46652;DHT22;32377;52.182;5.398;2023-04-24T09:06:30;8.60;99.90
46652;DHT22;32377;52.182;5.398;2023-04-24T09:09:01;8.60;99.90
46652;DHT22;32377;52.182;5.398;2023-04-24T09:11:27;8.50;99.90
46652;DHT22;32377;52.182;5.398;2023-04-24T09:13:56;8.60;99.90
46652;DHT22;32377;52.182;5.398;2023-04-24T09:16:22;8.70;99.90
46652;DHT22;32377;52.182;5.398;2023-04-24T09:18:49;8.80;99.90
46652;DHT22;32377;52.182;5.398;2023-04-24T09:21:15;8.70;99.90
46652;DHT22;32377;52.182;5.398;2023-04-24T09:23:44;8.90;99.90
46652;DHT22;32377;52.182;5.398;2023-04-24T09:26:10;9.00;99.90
46652;DHT22;32377;52.182;5.398;2023-04-24T09:28:38;9.10;99.90
46652;DHT22;32377;52.182;5.398;2023-04-24T09:31:14;9.10;99.90
46652;DHT22;32377;52.182;5.398;2023-04-24T09:33:57;9.00;99.90
46652;DHT22;32377;52.182;5.398;2023-04-24T09:36:42;8.90;99.90
46652;DHT22;32377;52.182;5.398;2023-04-24T09:39:10;9.10;99.90
46652;DHT22;32377;52.182;5.398;2023-04-24T09:44:26;9.00;99.90
46652;DHT22;32377;52.182;5.398;2023-04-24T09:46:59;9.00;99.90
46652;DHT22;32377;52.182;5.398;2023-04-24T09:49:29;9.00;99.90
46652;DHT22;32377;52.182;5.398;2023-04-24T09:52:09;9.00;99.90
46652;DHT22;32377;52.182;5.398;2023-04-24T09:54:36;9.20;99.90
46652;DHT22;32377;52.182;5.398;2023-04-24T09:59:19;9.40;99.90
46652;DHT22;32377;52.182;5.398;2023-04-24T10:01:45;9.60;99.90
46652;DHT22;32377;52.182;5.398;2023-04-24T10:04:26;9.50;99.90
46652;DHT22;32377;52.182;5.398;2023-04-24T10:06:54;9.50;99.90
46652;DHT22;32377;52.182;5.398;2023-04-24T10:09:21;9.50;99.90
46652;DHT22;32377;52.182;5.398;2023-04-24T10:11:49;9.60;99.90
46652;DHT22;32377;52.182;5.398;2023-04-24T10:14:17;9.60;99.90
46652;DHT22;32377;52.182;5.398;2023-04-24T10:16:43;9.70;99.90
46652;DHT22;32377;52.182;5.398;2023-04-24T10:19:10;9.80;99.90
46652;DHT22;32377;52.182;5.398;2023-04-24T10:21:36;9.80;99.90
46652;DHT22;32377;52.182;5.398;2023-04-24T10:24:08;9.80;99.90
46652;DHT22;32377;52.182;5.398;2023-04-24T10:26:34;9.80;99.90
46652;DHT22;32377;52.182;5.398;2023-04-24T10:29:01;9.60;99.90
46652;DHT22;32377;52.182;5.398;2023-04-24T10:31:27;9.50;99.90
46652;DHT22;32377;52.182;5.398;2023-04-24T10:33:56;9.70;99.90
46652;DHT22;32377;52.182;5.398;2023-04-24T10:36:24;10.00;99.90
46652;DHT22;32377;52.182;5.398;2023-04-24T10:38:52;10.00;99.90
46652;DHT22;32377;52.182;5.398;2023-04-24T10:41:20;10.30;99.90
46652;DHT22;32377;52.182;5.398;2023-04-24T10:44:03;10.60;99.90
46652;DHT22;32377;52.182;5.398;2023-04-24T10:46:30;10.60;99.90
46652;DHT22;32377;52.182;5.398;2023-04-24T10:48:56;10.60;99.90
46652;DHT22;32377;52.182;5.398;2023-04-24T10:51:24;10.60;99.90
46652;DHT22;32377;52.182;5.398;2023-04-24T10:53:52;10.60;99.90
46652;DHT22;32377;52.182;5.398;2023-04-24T10:56:18;10.20;99.90
46652;DHT22;32377;52.182;5.398;2023-04-24T10:58:50;9.80;99.90
46652;DHT22;32377;52.182;5.398;2023-04-24T11:01:25;9.60;99.90
46652;DHT22;32377;52.182;5.398;2023-04-24T11:03:56;9.60;99.90
46652;DHT22;32377;52.182;5.398;2023-04-24T11:06:33;9.30;99.90
46652;DHT22;32377;52.182;5.398;2023-04-24T11:09:10;9.10;99.90
46652;DHT22;32377;52.182;5.398;2023-04-24T11:11:43;8.90;99.90
46652;DHT22;32377;52.182;5.398;2023-04-24T11:14:10;9.10;99.90
46652;DHT22;32377;52.182;5.398;2023-04-24T11:16:40;9.20;99.90
46652;DHT22;32377;52.182;5.398;2023-04-24T11:19:18;9.20;99.90
46652;DHT22;32377;52.182;5.398;2023-04-24T11:21:49;9.60;99.90
46652;DHT22;32377;52.182;5.398;2023-04-24T11:26:53;9.90;99.90
46652;DHT22;32377;52.182;5.398;2023-04-24T11:29:20;10.20;99.90
46652;DHT22;32377;52.182;5.398;2023-04-24T11:31:46;10.20;99.90
46652;DHT22;32377;52.182;5.398;2023-04-24T11:34:17;10.20;99.90
46652;DHT22;32377;52.182;5.398;2023-04-24T11:36:44;10.40;99.90
46652;DHT22;32377;52.182;5.398;2023-04-24T11:39:12;10.70;99.90
46652;DHT22;32377;52.182;5.398;2023-04-24T11:41:38;10.70;99.90
46652;DHT22;32377;52.182;5.398;2023-04-24T11:44:08;10.70;99.90
46652;DHT22;32377;52.182;5.398;2023-04-24T11:46:34;10.60;99.90
46652;DHT22;32377;52.182;5.398;2023-04-24T11:48:59;10.70;99.90
46652;DHT22;32377;52.182;5.398;2023-04-24T11:51:27;10.70;99.90
46652;DHT22;32377;52.182;5.398;2023-04-24T11:53:56;11.00;99.90
46652;DHT22;32377;52.182;5.398;2023-04-24T11:56:23;11.20;99.90
46652;DHT22;32377;52.182;5.398;2023-04-24T11:58:50;11.20;99.90
46652;DHT22;32377;52.182;5.398;2023-04-24T12:01:17;11.20;99.90
46652;DHT22;32377;52.182;5.398;2023-04-24T12:03:47;11.10;99.90
46652;DHT22;32377;52.182;5.398;2023-04-24T12:06:13;11.00;99.90
46652;DHT22;32377;52.182;5.398;2023-04-24T12:08:39;11.10;99.90
46652;DHT22;32377;52.182;5.398;2023-04-24T12:11:06;11.00;99.90
46652;DHT22;32377;52.182;5.398;2023-04-24T12:13:35;10.80;99.90
46652;DHT22;32377;52.182;5.398;2023-04-24T12:16:02;10.80;99.90
46652;DHT22;32377;52.182;5.398;2023-04-24T12:18:28;10.70;99.90
46652;DHT22;32377;52.182;5.398;2023-04-24T12:20:54;10.50;99.90
46652;DHT22;32377;52.182;5.398;2023-04-24T12:23:35;10.50;99.90
46652;DHT22;32377;52.182;5.398;2023-04-24T12:26:04;10.70;99.90
46652;DHT22;32377;52.182;5.398;2023-04-24T12:28:38;10.70;99.90
46652;DHT22;32377;52.182;5.398;2023-04-24T12:31:04;10.50;99.90
46652;DHT22;32377;52.182;5.398;2023-04-24T12:33:33;10.50;99.90
46652;DHT22;32377;52.182;5.398;2023-04-24T12:36:00;10.40;99.90
46652;DHT22;32377;52.182;5.398;2023-04-24T12:38:28;10.60;99.90
46652;DHT22;32377;52.182;5.398;2023-04-24T12:41:02;10.70;99.90
46652;DHT22;32377;52.182;5.398;2023-04-24T12:43:29;10.80;99.90
46652;DHT22;32377;52.182;5.398;2023-04-24T12:45:55;11.00;99.90
46652;DHT22;32377;52.182;5.398;2023-04-24T12:48:20;10.90;99.90
46652;DHT22;32377;52.182;5.398;2023-04-24T12:50:47;10.70;99.90
46652;DHT22;32377;52.182;5.398;2023-04-24T12:53:13;10.50;99.90
46652;DHT22;32377;52.182;5.398;2023-04-24T12:55:39;10.30;99.90
46652;DHT22;32377;52.182;5.398;2023-04-24T12:58:05;10.20;99.90
46652;DHT22;32377;52.182;5.398;2023-04-24T13:00:31;10.10;99.90
46652;DHT22;32377;52.182;5.398;2023-04-24T13:02:57;9.80;99.90
46652;DHT22;32377;52.182;5.398;2023-04-24T13:05:23;9.40;99.90
46652;DHT22;32377;52.182;5.398;2023-04-24T13:07:48;9.10;99.90
46652;DHT22;32377;52.182;5.398;2023-04-24T13:10:14;9.10;99.90
46652;DHT22;32377;52.182;5.398;2023-04-24T13:12:40;9.00;99.90
46652;DHT22;32377;52.182;5.398;2023-04-24T13:15:06;9.40;99.90
46652;DHT22;32377;52.182;5.398;2023-04-24T13:17:32;9.60;99.90
46652;DHT22;32377;52.182;5.398;2023-04-24T13:19:58;9.90;99.90
46652;DHT22;32377;52.182;5.398;2023-04-24T13:22:24;10.00;99.90
46652;DHT22;32377;52.182;5.398;2023-04-24T13:24:50;10.20;99.90
46652;DHT22;32377;52.182;5.398;2023-04-24T13:27:16;10.30;99.90
46652;DHT22;32377;52.182;5.398;2023-04-24T13:29:42;10.60;99.90
46652;DHT22;32377;52.182;5.398;2023-04-24T13:32:08;10.90;99.90
46652;DHT22;32377;52.182;5.398;2023-04-24T13:34:34;10.90;99.90
46652;DHT22;32377;52.182;5.398;2023-04-24T13:37:01;11.10;99.90
46652;DHT22;32377;52.182;5.398;2023-04-24T13:39:26;10.90;99.90
46652;DHT22;32377;52.182;5.398;2023-04-24T13:41:53;10.80;99.90
46652;DHT22;32377;52.182;5.398;2023-04-24T13:44:19;10.90;99.90
46652;DHT22;32377;52.182;5.398;2023-04-24T13:46:47;10.80;99.90
46652;DHT22;32377;52.182;5.398;2023-04-24T13:49:14;10.80;99.90
46652;DHT22;32377;52.182;5.398;2023-04-24T13:51:41;10.60;99.90
46652;DHT22;32377;52.182;5.398;2023-04-24T13:54:06;10.50;99.90
46652;DHT22;32377;52.182;5.398;2023-04-24T13:56:32;10.50;99.90
46652;DHT22;32377;52.182;5.398;2023-04-24T13:58:58;10.40;99.90
46652;DHT22;32377;52.182;5.398;2023-04-24T14:01:24;10.40;99.90
46652;DHT22;32377;52.182;5.398;2023-04-24T14:03:54;10.80;99.90
46652;DHT22;32377;52.182;5.398;2023-04-24T14:06:21;11.10;99.90
46652;DHT22;32377;52.182;5.398;2023-04-24T14:08:48;11.30;99.90
46652;DHT22;32377;52.182;5.398;2023-04-24T14:11:14;11.50;99.90
46652;DHT22;32377;52.182;5.398;2023-04-24T14:13:41;11.70;99.90
46652;DHT22;32377;52.182;5.398;2023-04-24T14:16:07;11.60;99.90
46652;DHT22;32377;52.182;5.398;2023-04-24T14:18:33;11.30;99.90
46652;DHT22;32377;52.182;5.398;2023-04-24T14:20:59;11.40;99.90
46652;DHT22;32377;52.182;5.398;2023-04-24T14:23:26;11.10;99.90
46652;DHT22;32377;52.182;5.398;2023-04-24T14:25:52;10.60;99.90
46652;DHT22;32377;52.182;5.398;2023-04-24T14:28:19;10.70;99.90
46652;DHT22;32377;52.182;5.398;2023-04-24T14:30:45;10.70;99.90
46652;DHT22;32377;52.182;5.398;2023-04-24T14:33:11;10.60;99.90
46652;DHT22;32377;52.182;5.398;2023-04-24T14:35:38;10.50;99.90
46652;DHT22;32377;52.182;5.398;2023-04-24T14:38:04;10.60;99.90
46652;DHT22;32377;52.182;5.398;2023-04-24T14:40:30;10.60;99.90
46652;DHT22;32377;52.182;5.398;2023-04-24T14:42:56;10.60;99.90
46652;DHT22;32377;52.182;5.398;2023-04-24T14:45:23;10.40;99.90
46652;DHT22;32377;52.182;5.398;2023-04-24T14:47:49;10.30;99.90
46652;DHT22;32377;52.182;5.398;2023-04-24T14:50:15;10.20;99.90
46652;DHT22;32377;52.182;5.398;2023-04-24T14:52:40;10.00;99.90
46652;DHT22;32377;52.182;5.398;2023-04-24T14:55:06;10.10;99.90
46652;DHT22;32377;52.182;5.398;2023-04-24T14:57:32;10.40;99.90
46652;DHT22;32377;52.182;5.398;2023-04-24T14:59:58;10.50;99.90
46652;DHT22;32377;52.182;5.398;2023-04-24T15:02:24;10.70;99.90
46652;DHT22;32377;52.182;5.398;2023-04-24T15:04:49;10.80;99.90
46652;DHT22;32377;52.182;5.398;2023-04-24T15:07:15;10.70;99.90
46652;DHT22;32377;52.182;5.398;2023-04-24T15:09:40;10.50;99.90
46652;DHT22;32377;52.182;5.398;2023-04-24T15:12:06;10.50;99.90
46652;DHT22;32377;52.182;5.398;2023-04-24T15:14:32;10.60;99.90
46652;DHT22;32377;52.182;5.398;2023-04-24T15:16:57;10.60;99.90
46652;DHT22;32377;52.182;5.398;2023-04-24T15:19:23;10.70;99.90
46652;DHT22;32377;52.182;5.398;2023-04-24T15:21:48;10.90;99.90
46652;DHT22;32377;52.182;5.398;2023-04-24T15:24:14;10.90;99.90
46652;DHT22;32377;52.182;5.398;2023-04-24T15:26:39;10.60;99.90
46652;DHT22;32377;52.182;5.398;2023-04-24T15:29:05;10.80;99.90
46652;DHT22;32377;52.182;5.398;2023-04-24T15:31:31;10.80;99.90
46652;DHT22;32377;52.182;5.398;2023-04-24T15:33:56;11.00;99.90
46652;DHT22;32377;52.182;5.398;2023-04-24T15:36:22;11.00;99.90
46652;DHT22;32377;52.182;5.398;2023-04-24T15:38:47;11.00;99.90
46652;DHT22;32377;52.182;5.398;2023-04-24T15:41:13;11.10;99.90
46652;DHT22;32377;52.182;5.398;2023-04-24T15:43:39;11.10;99.90
46652;DHT22;32377;52.182;5.398;2023-04-24T15:46:06;11.10;99.90
46652;DHT22;32377;52.182;5.398;2023-04-24T15:48:32;11.00;99.90